Terminal Aerodrome Forecast
Issued by NWS

Home | Current Version | Previous Version | Text Only | Print | Product List | Glossary Off
Versions: 1 2 3 4 5 6 7 8 9 10 11 12 13 14

000
FTUS45 KGGW 171126
TAFOLF
TAF
KOLF 171126Z 1712/1812 09009KT P6SM OVC040
     FM171400 08008KT P6SM -SHSN OVC035
     FM172100 29010KT P6SM -SHRA OVC020
     FM180000 31008KT P6SM OVC070
     FM181000 28006KT P6SM BKN025=

USA.gov is the U.S. government's official web portal to all federal, state and local government web resources and services.